createdAt,value
2018-08-09T00:00:01.359Z,23.00
2018-08-09T00:02:14.359Z,23.00
2018-08-09T00:03:17.727Z,23.00
2018-08-09T00:04:21.042Z,23.00
2018-08-09T00:05:24.429Z,23.00
2018-08-09T00:06:27.755Z,23.00
2018-08-09T00:07:31.102Z,22.90
2018-08-09T00:08:34.474Z,22.90
2018-08-09T00:09:44.106Z,22.90
2018-08-09T00:10:47.446Z,22.80
2018-08-09T00:11:50.772Z,22.80
2018-08-09T00:12:54.098Z,22.70
2018-08-09T00:13:57.486Z,22.70
2018-08-09T00:15:00.808Z,22.70
2018-08-09T00:16:04.150Z,22.60
2018-08-09T00:17:07.460Z,22.60
2018-08-09T00:18:10.822Z,22.60
2018-08-09T00:19:14.148Z,22.60
2018-08-09T00:20:17.467Z,22.50
2018-08-09T00:21:20.770Z,22.50
2018-08-09T00:22:24.090Z,22.50
2018-08-09T00:23:27.439Z,22.40
2018-08-09T00:24:30.746Z,22.20
2018-08-09T00:25:34.058Z,22.20
2018-08-09T00:26:37.379Z,22.20
2018-08-09T00:27:40.714Z,22.30
2018-08-09T00:28:44.064Z,22.30
2018-08-09T00:29:47.471Z,22.30
2018-08-09T00:30:50.808Z,22.40
2018-08-09T00:31:54.146Z,22.30
2018-08-09T00:32:57.532Z,22.30
2018-08-09T00:34:00.882Z,22.30
2018-08-09T00:35:04.292Z,22.30
2018-08-09T00:36:07.646Z,22.30
2018-08-09T00:37:11.014Z,22.30
2018-08-09T00:38:14.331Z,22.30
2018-08-09T00:39:17.684Z,22.30
2018-08-09T00:40:20.998Z,22.20
2018-08-09T00:41:24.369Z,22.20
2018-08-09T00:42:27.670Z,22.20
2018-08-09T00:43:30.974Z,22.20
2018-08-09T00:44:34.340Z,22.10
2018-08-09T00:45:37.671Z,22.10
2018-08-09T00:46:40.999Z,22.10
2018-08-09T00:47:44.331Z,22.10
2018-08-09T00:48:47.667Z,22.10
2018-08-09T00:49:51.015Z,22.00
2018-08-09T00:50:54.323Z,22.10
2018-08-09T00:51:57.662Z,22.00
2018-08-09T00:53:01.022Z,22.00
2018-08-09T00:54:04.351Z,22.00
2018-08-09T00:55:07.674Z,22.10
2018-08-09T00:56:10.995Z,22.00
2018-08-09T00:57:14.555Z,22.00
2018-08-09T00:58:17.918Z,22.10
2018-08-09T00:59:21.234Z,22.00
2018-08-09T01:00:24.578Z,22.00
2018-08-09T01:01:27.885Z,22.00
2018-08-09T01:02:31.198Z,22.00
2018-08-09T01:03:34.538Z,22.00
2018-08-09T01:04:37.862Z,22.00
2018-08-09T01:05:41.184Z,22.00
2018-08-09T01:06:44.553Z,22.00
2018-08-09T01:07:47.890Z,22.00
2018-08-09T01:08:56.559Z,22.00
2018-08-09T01:09:59.888Z,22.00
2018-08-09T01:11:03.211Z,22.00
2018-08-09T01:12:06.572Z,22.00
2018-08-09T01:13:09.932Z,21.90
2018-08-09T01:14:13.258Z,21.90
2018-08-09T01:15:16.575Z,21.90
2018-08-09T01:16:19.904Z,21.90
2018-08-09T01:17:23.246Z,21.90
2018-08-09T01:18:26.606Z,21.90
2018-08-09T01:19:29.951Z,21.80
2018-08-09T01:20:33.265Z,21.70
2018-08-09T01:21:36.581Z,21.50
2018-08-09T01:22:39.915Z,21.50
2018-08-09T01:23:43.279Z,21.50
2018-08-09T01:24:46.590Z,21.50
2018-08-09T01:25:49.968Z,21.50
2018-08-09T01:26:53.363Z,21.50
2018-08-09T01:27:56.684Z,21.50
2018-08-09T01:29:00.045Z,21.50
2018-08-09T01:30:03.425Z,21.50
2018-08-09T01:31:06.794Z,21.50
2018-08-09T01:32:10.124Z,21.60
2018-08-09T01:33:13.455Z,21.60
2018-08-09T01:34:16.810Z,21.50
2018-08-09T01:35:20.127Z,21.30
2018-08-09T01:36:23.452Z,21.30
2018-08-09T01:37:26.785Z,21.30
2018-08-09T01:38:30.131Z,21.20
2018-08-09T01:39:33.491Z,21.20
2018-08-09T01:40:36.789Z,21.30
2018-08-09T01:41:46.857Z,21.30
2018-08-09T01:43:01.542Z,21.40
2018-08-09T01:44:05.967Z,21.30
2018-08-09T01:45:09.318Z,21.30
2018-08-09T01:46:12.628Z,21.30
2018-08-09T01:47:15.942Z,21.40
2018-08-09T01:48:19.264Z,21.50
2018-08-09T01:49:22.578Z,21.50
2018-08-09T01:50:25.935Z,21.50
2018-08-09T01:51:29.835Z,21.40
2018-08-09T01:52:33.154Z,21.40
2018-08-09T01:53:36.510Z,21.40
2018-08-09T01:54:39.880Z,21.40
2018-08-09T01:55:43.220Z,21.30
2018-08-09T01:56:46.561Z,21.40
2018-08-09T01:57:49.910Z,21.30
2018-08-09T01:58:53.885Z,21.20
2018-08-09T01:59:57.194Z,21.20
2018-08-09T02:01:00.523Z,21.30
2018-08-09T02:02:03.861Z,21.30
2018-08-09T02:03:07.182Z,21.30
2018-08-09T02:04:10.558Z,21.30
2018-08-09T02:05:13.892Z,21.30
2018-08-09T02:06:17.972Z,21.30
2018-08-09T02:07:21.290Z,21.30
2018-08-09T02:08:24.612Z,21.20
2018-08-09T02:09:33.253Z,21.20
2018-08-09T02:10:36.574Z,21.20
2018-08-09T02:11:39.943Z,21.10
2018-08-09T02:12:43.255Z,21.10
2018-08-09T02:13:46.607Z,21.00
2018-08-09T02:14:49.939Z,21.00
2018-08-09T02:15:53.274Z,21.00
2018-08-09T02:16:56.618Z,20.90
2018-08-09T02:17:59.930Z,20.90
2018-08-09T02:19:03.329Z,20.80
2018-08-09T02:20:06.692Z,20.80
2018-08-09T02:21:10.804Z,20.80
2018-08-09T02:22:14.128Z,20.80
2018-08-09T02:23:17.440Z,20.60
2018-08-09T02:24:20.806Z,20.70
2018-08-09T02:25:24.106Z,20.70
2018-08-09T02:26:27.427Z,20.70
2018-08-09T02:27:30.730Z,20.80
2018-08-09T02:28:34.064Z,20.80
2018-08-09T02:29:37.411Z,20.70
2018-08-09T02:30:40.746Z,20.70
2018-08-09T02:31:44.074Z,20.70
2018-08-09T02:32:47.403Z,20.70
2018-08-09T02:33:50.747Z,20.70
2018-08-09T02:34:54.141Z,20.60
2018-08-09T02:35:57.580Z,20.70
2018-08-09T02:37:01.276Z,20.70
2018-08-09T02:38:04.622Z,20.60
2018-08-09T02:39:09.618Z,20.60
2018-08-09T02:40:12.947Z,20.70
2018-08-09T02:41:16.303Z,20.70
2018-08-09T02:42:19.647Z,20.70
2018-08-09T02:43:23.192Z,20.60
2018-08-09T02:44:26.536Z,20.50
2018-08-09T02:45:29.888Z,20.50
2018-08-09T02:46:33.323Z,20.50
2018-08-09T02:47:36.652Z,20.40
2018-08-09T08:20:15.759Z,26.60
2018-08-09T08:21:19.084Z,26.60
2018-08-09T08:22:22.398Z,26.70
2018-08-09T08:23:25.761Z,26.70
2018-08-09T08:24:29.068Z,26.80
2018-08-09T08:25:32.375Z,26.80
2018-08-09T08:26:35.891Z,26.90
2018-08-09T08:27:39.234Z,26.90
2018-08-09T08:28:42.558Z,26.90
2018-08-09T08:29:45.875Z,26.80
2018-08-09T08:30:49.226Z,26.80
2018-08-09T08:31:53.009Z,26.80
2018-08-09T08:32:56.359Z,26.90
2018-08-09T08:33:59.692Z,27.10
2018-08-09T08:35:03.092Z,27.10
2018-08-09T08:36:06.435Z,27.20
2018-08-09T08:37:09.831Z,27.30
2018-08-09T08:38:13.163Z,27.40
2018-08-09T08:39:16.510Z,27.30
2018-08-09T08:40:19.895Z,27.30
2018-08-09T08:41:23.359Z,27.30
2018-08-09T08:42:26.659Z,27.40
2018-08-09T08:43:29.983Z,27.60
2018-08-09T08:44:33.350Z,27.60
2018-08-09T08:45:36.695Z,27.70
2018-08-09T08:46:40.019Z,27.70
2018-08-09T08:47:43.784Z,27.70
2018-08-09T08:48:47.114Z,27.70
2018-08-09T08:49:50.484Z,27.80
2018-08-09T08:50:53.802Z,27.90
2018-08-09T08:51:57.150Z,28.10
2018-08-09T08:53:00.513Z,28.20
2018-08-09T08:54:03.915Z,28.30
2018-08-09T08:55:08.742Z,28.50
2018-08-09T08:56:12.084Z,28.50
2018-08-09T08:57:15.411Z,28.60
2018-08-09T08:58:18.765Z,28.60
2018-08-09T08:59:22.143Z,28.60
2018-08-09T09:00:25.523Z,28.70
2018-08-09T09:01:28.881Z,28.80
2018-08-09T09:02:32.204Z,28.70
2018-08-09T09:03:35.644Z,28.70
2018-08-09T09:04:38.999Z,28.60
2018-08-09T09:05:42.389Z,28.60
2018-08-09T09:06:45.758Z,28.60
2018-08-09T09:07:55.763Z,28.70
2018-08-09T09:08:59.079Z,28.80
2018-08-09T09:10:02.419Z,28.90
2018-08-09T09:11:05.814Z,28.90
2018-08-09T09:12:09.142Z,29.00
2018-08-09T09:13:12.493Z,29.10
2018-08-09T09:14:15.850Z,29.20
2018-08-09T09:15:19.172Z,29.20
2018-08-09T09:16:22.536Z,29.30
2018-08-09T09:17:25.909Z,29.50
2018-08-09T09:18:29.226Z,29.50
2018-08-09T09:19:32.542Z,29.50
2018-08-09T09:20:35.895Z,29.60
2018-08-09T09:21:39.207Z,29.60
2018-08-09T09:22:43.222Z,29.70
2018-08-09T09:23:46.599Z,29.70
2018-08-09T09:24:49.920Z,29.70
2018-08-09T09:25:53.270Z,29.70
2018-08-09T09:26:56.656Z,29.70
2018-08-09T09:27:59.974Z,29.70
2018-08-09T09:29:03.372Z,29.80
2018-08-09T09:30:09.196Z,29.90
2018-08-09T09:31:12.519Z,29.90
2018-08-09T09:32:15.855Z,30.00
2018-08-09T09:33:19.219Z,30.20
2018-08-09T09:34:22.538Z,30.20
2018-08-09T09:35:25.841Z,30.40
2018-08-09T09:36:29.208Z,30.50
2018-08-09T09:37:32.539Z,30.60
2018-08-09T09:38:35.904Z,30.40
2018-08-09T09:39:39.378Z,30.30
2018-08-09T09:40:42.751Z,30.50
2018-08-09T09:41:46.074Z,30.20
2018-08-09T09:42:49.404Z,30.40
2018-08-09T09:43:52.727Z,30.60
2018-08-09T09:44:56.063Z,30.70
2018-08-09T09:45:59.434Z,30.90
2018-08-09T09:47:02.754Z,31.20
2018-08-09T09:48:06.126Z,31.40
2018-08-09T09:49:09.426Z,31.50
2018-08-09T09:50:12.854Z,31.50
2018-08-09T09:51:16.199Z,31.50
2018-08-09T09:52:26.050Z,31.50
2018-08-09T09:53:29.365Z,31.40
2018-08-09T09:54:32.683Z,31.30
2018-08-09T09:55:36.028Z,31.20
2018-08-09T09:56:39.351Z,31.30
2018-08-09T09:57:42.678Z,31.20
2018-08-09T09:58:45.983Z,31.30
2018-08-09T09:59:49.333Z,31.10
2018-08-09T10:00:57.903Z,31.10
2018-08-09T10:02:01.233Z,31.00
2018-08-09T10:03:04.562Z,31.10
2018-08-09T10:04:07.900Z,31.20
2018-08-09T10:05:11.224Z,31.40
2018-08-09T10:06:14.547Z,31.30
2018-08-09T10:07:17.946Z,31.50
2018-08-09T10:08:21.233Z,31.50
2018-08-09T10:09:24.546Z,31.60
2018-08-09T10:10:27.932Z,31.50
2018-08-09T10:11:31.587Z,31.50
2018-08-09T10:12:35.062Z,31.60
2018-08-09T10:13:38.383Z,31.60
2018-08-09T10:14:41.735Z,31.60
2018-08-09T10:15:51.511Z,31.60
2018-08-09T10:16:54.818Z,31.70
2018-08-09T10:17:58.123Z,31.60
2018-08-09T10:19:01.432Z,31.40
2018-08-09T10:20:05.443Z,31.30
2018-08-09T10:21:08.782Z,31.30
2018-08-09T10:22:12.085Z,30.80
2018-08-09T10:23:15.439Z,30.80
2018-08-09T10:24:18.771Z,30.80
2018-08-09T10:25:22.115Z,31.00
2018-08-09T10:26:25.483Z,31.10
2018-08-09T10:27:28.800Z,31.20
2018-08-09T10:28:32.119Z,31.20
2018-08-09T10:29:35.439Z,31.30
2018-08-09T10:30:38.789Z,31.40
2018-08-09T10:31:42.099Z,31.60
2018-08-09T10:32:45.410Z,31.80
2018-08-09T10:33:48.730Z,31.90
2018-08-09T10:34:52.063Z,31.90
2018-08-09T10:35:55.438Z,32.10
2018-08-09T10:36:58.778Z,32.10
2018-08-09T10:38:02.099Z,32.00
2018-08-09T10:39:08.693Z,32.10
2018-08-09T10:40:12.014Z,31.90
2018-08-09T10:41:15.308Z,31.70
2018-08-09T10:42:18.669Z,31.60
2018-08-09T10:43:21.976Z,31.60
2018-08-09T10:44:25.286Z,31.70
2018-08-09T10:45:28.674Z,31.90
2018-08-09T10:46:32.018Z,32.10
2018-08-09T10:47:35.394Z,32.10
2018-08-09T10:48:38.733Z,32.20
2018-08-09T10:49:42.058Z,32.00
2018-08-09T10:50:45.402Z,32.00
2018-08-09T10:51:48.750Z,32.10
2018-08-09T10:52:52.100Z,32.30
2018-08-09T10:53:55.463Z,32.40
2018-08-09T10:54:58.807Z,32.60
2018-08-09T10:56:02.132Z,32.70
2018-08-09T10:57:05.543Z,32.80
2018-08-09T10:58:08.865Z,32.70
2018-08-09T10:59:12.207Z,32.70
2018-08-09T11:00:15.602Z,32.80
2018-08-09T11:01:18.949Z,32.90
2018-08-09T11:02:22.287Z,32.90
2018-08-09T11:03:25.635Z,33.00
2018-08-09T11:04:29.008Z,33.10
2018-08-09T11:05:32.392Z,33.10
2018-08-09T11:06:35.727Z,33.20
2018-08-09T11:07:39.166Z,33.30
2018-08-09T11:08:42.528Z,33.50
2018-08-09T11:09:45.867Z,33.40
2018-08-09T11:10:49.190Z,33.20
2018-08-09T11:11:52.510Z,33.10
2018-08-09T11:12:55.879Z,33.00
2018-08-09T11:13:59.205Z,33.10
2018-08-09T11:15:02.617Z,33.20
2018-08-09T11:16:05.895Z,33.20
2018-08-09T11:17:09.232Z,33.30
2018-08-09T11:18:12.636Z,33.30
2018-08-09T11:19:15.958Z,33.40
2018-08-09T11:20:25.690Z,33.40
2018-08-09T11:21:29.040Z,33.50
2018-08-09T11:22:32.363Z,33.60
2018-08-09T11:23:35.739Z,33.70
2018-08-09T11:24:39.085Z,33.70
2018-08-09T11:25:42.428Z,33.70
2018-08-09T11:26:45.759Z,33.70
2018-08-09T11:27:49.058Z,33.80
2018-08-09T11:28:52.378Z,34.00
2018-08-09T11:29:55.698Z,34.00
2018-08-09T11:30:59.168Z,34.00
2018-08-09T11:32:02.481Z,33.90
2018-08-09T11:33:05.914Z,33.80
2018-08-09T11:34:09.283Z,33.80
2018-08-09T11:35:12.623Z,33.70
2018-08-09T11:36:15.935Z,33.80
2018-08-09T11:37:19.300Z,34.00
2018-08-09T11:38:22.620Z,34.20
2018-08-09T11:39:25.930Z,34.10
2018-08-09T11:40:29.338Z,34.10
2018-08-09T11:41:32.712Z,34.00
2018-08-09T11:42:36.052Z,33.90
2018-08-09T11:43:39.378Z,33.90
2018-08-09T11:44:42.691Z,34.00
2018-08-09T11:45:46.164Z,34.10
2018-08-09T11:46:49.607Z,34.10
2018-08-09T11:47:52.923Z,34.20
2018-08-09T11:48:56.282Z,34.20
2018-08-09T11:49:59.614Z,34.20
2018-08-09T11:51:02.963Z,34.30
2018-08-09T11:52:06.394Z,34.30
2018-08-09T11:53:09.730Z,34.50
2018-08-09T11:54:13.060Z,34.80
2018-08-09T11:55:16.419Z,34.90
2018-08-09T11:56:19.841Z,35.00
2018-08-09T11:57:23.175Z,35.00
2018-08-09T11:58:26.536Z,34.90
2018-08-09T11:59:29.867Z,35.20
2018-08-09T12:00:33.282Z,35.20
2018-08-09T12:01:36.664Z,35.30
2018-08-09T12:02:39.995Z,35.60
2018-08-09T12:03:43.364Z,35.50
2018-08-09T12:04:46.687Z,35.50
2018-08-09T12:05:50.043Z,35.50
2018-08-09T12:06:53.368Z,35.40
2018-08-09T12:07:56.707Z,35.30
2018-08-09T12:09:00.039Z,35.10
2018-08-09T12:10:03.410Z,34.90
2018-08-09T12:11:06.914Z,34.70
2018-08-09T12:12:10.244Z,34.80
2018-08-09T12:13:13.615Z,34.90
2018-08-09T12:14:16.987Z,34.90
2018-08-09T12:15:23.322Z,35.20
2018-08-09T12:16:26.716Z,35.20
2018-08-09T12:17:30.034Z,35.30
2018-08-09T12:18:33.411Z,35.20
2018-08-09T12:19:36.735Z,35.10
2018-08-09T12:20:40.091Z,35.00
2018-08-09T12:21:43.432Z,34.90
2018-08-09T12:22:46.771Z,34.80
2018-08-09T12:23:50.118Z,34.50
2018-08-09T12:24:53.435Z,34.40
2018-08-09T12:25:56.757Z,34.20
2018-08-09T12:27:00.192Z,34.10
2018-08-09T12:28:03.562Z,34.10
2018-08-09T12:29:06.895Z,34.00
2018-08-09T12:30:12.927Z,34.00
2018-08-09T12:31:16.242Z,33.90
2018-08-09T12:32:19.627Z,33.80
2018-08-09T12:33:23.001Z,33.60
2018-08-09T12:34:26.346Z,33.40
2018-08-09T12:35:29.695Z,33.30
2018-08-09T12:36:33.036Z,33.20
2018-08-09T12:37:36.438Z,33.30
2018-08-09T12:38:39.791Z,33.10
2018-08-09T12:39:43.147Z,33.10
2018-08-09T12:40:46.476Z,33.10
2018-08-09T12:41:49.826Z,33.20
2018-08-09T12:42:53.206Z,33.10
2018-08-09T12:43:56.576Z,33.10
2018-08-09T12:44:59.943Z,33.20
2018-08-09T12:46:03.292Z,33.20
2018-08-09T12:47:06.619Z,33.20
2018-08-09T12:48:09.943Z,33.20
2018-08-09T12:49:13.314Z,33.20
2018-08-09T12:50:16.690Z,33.10
2018-08-09T12:51:20.035Z,33.00
2018-08-09T12:52:23.363Z,33.00
2018-08-09T12:53:26.732Z,33.10
2018-08-09T12:54:30.124Z,33.20
2018-08-09T12:55:33.507Z,33.10
2018-08-09T12:56:36.819Z,33.30
2018-08-09T12:57:40.168Z,33.50
2018-08-09T12:58:43.492Z,33.60
2018-08-09T12:59:46.863Z,33.90
2018-08-09T13:00:50.213Z,34.10
2018-08-09T13:01:53.516Z,34.40
2018-08-09T13:02:56.870Z,34.30
2018-08-09T13:04:00.258Z,34.20
2018-08-09T13:05:03.758Z,34.30
2018-08-09T13:06:07.109Z,34.30
2018-08-09T13:07:10.497Z,34.20
2018-08-09T13:08:13.861Z,34.20
2018-08-09T13:09:17.224Z,34.10
2018-08-09T13:10:20.628Z,34.10
2018-08-09T13:11:24.004Z,34.00
2018-08-09T13:12:27.344Z,34.20
2018-08-09T13:13:30.697Z,34.50
2018-08-09T13:14:34.045Z,34.60
2018-08-09T13:15:37.435Z,34.80
2018-08-09T13:16:40.839Z,34.70
2018-08-09T13:17:45.143Z,34.90
2018-08-09T13:18:48.467Z,35.00
2018-08-09T13:19:51.809Z,34.90
2018-08-09T13:20:55.154Z,34.90
2018-08-09T13:21:58.484Z,34.80
2018-08-09T13:23:01.855Z,34.80
2018-08-09T13:24:05.207Z,34.70
2018-08-09T13:25:08.555Z,34.80
2018-08-09T13:26:11.971Z,34.90
2018-08-09T13:27:15.572Z,35.00
2018-08-09T13:28:18.903Z,35.10
2018-08-09T13:29:22.239Z,35.10
2018-08-09T13:30:25.621Z,35.10
2018-08-09T13:31:28.986Z,35.20
2018-08-09T13:32:32.338Z,35.30
2018-08-09T13:33:35.949Z,35.20
2018-08-09T13:34:39.268Z,35.30
2018-08-09T13:35:42.655Z,35.40
2018-08-09T13:36:46.085Z,35.60
2018-08-09T13:37:49.415Z,35.70
2018-08-09T13:38:52.786Z,35.90
2018-08-09T13:39:56.183Z,36.10
2018-08-09T13:40:59.558Z,36.20
2018-08-09T13:42:02.912Z,36.40
2018-08-09T13:43:06.254Z,36.40
2018-08-09T13:44:09.688Z,36.40
2018-08-09T13:45:15.098Z,36.30
2018-08-09T13:46:18.499Z,36.50
2018-08-09T13:47:21.847Z,36.60
2018-08-09T13:48:25.193Z,36.70
2018-08-09T13:49:28.573Z,36.60
2018-08-09T13:50:31.947Z,36.50
2018-08-09T13:51:35.362Z,36.40
2018-08-09T13:52:39.080Z,36.40
2018-08-09T13:53:42.470Z,36.30
2018-08-09T13:54:45.811Z,36.00
2018-08-09T13:55:49.188Z,35.90
2018-08-09T13:56:52.527Z,35.80
2018-08-09T13:57:55.886Z,35.60
2018-08-09T13:58:59.235Z,35.50
2018-08-09T14:00:02.571Z,35.40
2018-08-09T14:01:06.003Z,35.50
2018-08-09T14:02:09.362Z,35.30
2018-08-09T14:03:19.244Z,35.30
2018-08-09T14:04:22.614Z,35.20
2018-08-09T14:05:25.983Z,35.10
2018-08-09T14:06:29.414Z,34.90
2018-08-09T14:07:32.759Z,34.70
2018-08-09T14:08:36.138Z,34.50
2018-08-09T14:09:39.479Z,34.30
2018-08-09T14:10:42.861Z,34.20
2018-08-09T14:11:46.201Z,34.00
2018-08-09T14:12:49.532Z,33.80
2018-08-09T14:13:52.905Z,33.80
2018-08-09T14:14:56.222Z,33.70
2018-08-09T14:15:59.553Z,33.60
2018-08-09T14:17:02.925Z,33.50
2018-08-09T14:18:06.291Z,33.50
2018-08-09T14:19:10.035Z,33.40
2018-08-09T14:20:16.735Z,33.40
2018-08-09T14:21:20.073Z,33.40
2018-08-09T14:22:23.415Z,33.40
2018-08-09T14:23:26.778Z,33.50
2018-08-09T14:24:30.249Z,33.50
2018-08-09T14:25:33.595Z,33.60
2018-08-09T14:26:36.957Z,33.60
2018-08-09T14:27:40.388Z,33.60
2018-08-09T14:28:43.735Z,33.50
2018-08-09T14:29:47.232Z,33.50
2018-08-09T14:30:50.607Z,33.50
2018-08-09T14:31:53.970Z,33.50
2018-08-09T14:32:57.326Z,33.60
2018-08-09T14:34:00.646Z,33.60
2018-08-09T14:35:05.962Z,33.50
2018-08-09T14:36:09.334Z,33.50
2018-08-09T14:37:12.675Z,33.40
2018-08-09T14:38:16.011Z,33.40
2018-08-09T14:39:19.318Z,33.40
2018-08-09T14:40:22.708Z,33.40
2018-08-09T14:41:26.148Z,33.30
2018-08-09T14:42:29.508Z,33.00
2018-08-09T14:43:32.863Z,32.70
2018-08-09T14:44:36.239Z,32.50
2018-08-09T14:45:39.616Z,32.40
2018-08-09T14:46:42.932Z,32.30
2018-08-09T14:47:46.307Z,32.20
2018-08-09T14:48:49.639Z,32.10
2018-08-09T14:49:52.961Z,32.20
2018-08-09T14:50:56.344Z,31.90
2018-08-09T14:51:59.649Z,31.80
2018-08-09T14:53:03.009Z,31.80
2018-08-09T14:54:06.359Z,31.70
2018-08-09T14:55:11.354Z,31.80
2018-08-09T14:56:14.754Z,31.80
2018-08-09T14:57:18.079Z,31.80
2018-08-09T14:58:21.450Z,31.70
2018-08-09T14:59:24.817Z,31.70
2018-08-09T15:00:28.157Z,31.60
2018-08-09T15:01:38.175Z,31.50
2018-08-09T15:02:41.560Z,31.40
2018-08-09T15:03:44.859Z,31.50
2018-08-09T15:04:48.254Z,31.50
2018-08-09T15:05:51.576Z,31.30
2018-08-09T15:06:54.941Z,31.30
2018-08-09T15:07:58.261Z,31.30
2018-08-09T15:09:01.623Z,31.30
2018-08-09T15:10:05.301Z,31.10
2018-08-09T15:11:08.699Z,30.90
2018-08-09T15:12:12.060Z,30.80
2018-08-09T15:13:15.415Z,30.60
2018-08-09T15:14:18.764Z,30.40
2018-08-09T15:15:22.131Z,30.20
2018-08-09T15:16:25.448Z,29.90
2018-08-09T15:17:28.782Z,29.50
2018-08-09T15:18:32.144Z,29.30
2018-08-09T15:19:35.519Z,29.00
2018-08-09T15:20:38.834Z,28.90
2018-08-09T15:21:42.183Z,28.60
2018-08-09T15:22:45.524Z,28.40
2018-08-09T15:23:48.863Z,28.30
2018-08-09T15:24:52.228Z,28.10
2018-08-09T15:25:55.542Z,27.70
2018-08-09T15:26:58.864Z,27.50
2018-08-09T15:28:02.235Z,27.30
2018-08-09T15:29:05.990Z,27.10
2018-08-09T15:30:12.811Z,26.90
2018-08-09T15:31:16.121Z,26.60
2018-08-09T15:32:19.475Z,26.40
2018-08-09T15:33:22.827Z,26.10
2018-08-09T15:34:26.202Z,25.90
2018-08-09T15:35:29.533Z,25.80
2018-08-09T15:36:32.857Z,25.90
2018-08-09T15:37:36.328Z,26.00
2018-08-09T15:38:46.157Z,26.00
2018-08-09T15:39:49.563Z,26.00
2018-08-09T15:40:52.918Z,25.80
2018-08-09T15:41:56.275Z,25.80
2018-08-09T15:42:59.619Z,25.80
2018-08-09T15:44:02.930Z,25.80
2018-08-09T15:45:07.745Z,25.70
2018-08-09T15:46:11.111Z,25.70
2018-08-09T15:47:14.509Z,25.70
2018-08-09T15:48:17.856Z,25.60
2018-08-09T15:49:21.210Z,25.50
2018-08-09T15:50:25.601Z,25.50
2018-08-09T15:51:28.926Z,25.40
2018-08-09T15:52:32.280Z,25.40
2018-08-09T15:53:35.626Z,25.40
2018-08-09T15:54:38.962Z,25.40
2018-08-09T15:55:42.366Z,25.30
2018-08-09T15:56:45.745Z,25.10
2018-08-09T15:57:49.114Z,25.00
2018-08-09T15:58:52.467Z,25.00
2018-08-09T15:59:55.809Z,25.00
2018-08-09T16:00:59.209Z,24.80
2018-08-09T16:02:02.542Z,24.60
2018-08-09T16:03:05.874Z,24.50
2018-08-09T16:04:09.207Z,24.40
2018-08-09T16:05:12.605Z,24.20
2018-08-09T16:06:15.955Z,24.10
2018-08-09T16:07:19.309Z,24.10
2018-08-09T16:08:22.662Z,24.10
2018-08-09T16:09:25.999Z,24.10
2018-08-09T16:10:29.359Z,24.10
2018-08-09T16:11:32.679Z,24.20
2018-08-09T16:12:36.336Z,24.10
2018-08-09T16:13:39.649Z,24.20
2018-08-09T16:14:43.019Z,24.20
2018-08-09T16:15:46.391Z,24.20
2018-08-09T16:16:49.715Z,24.20
2018-08-09T16:17:53.064Z,24.20
2018-08-09T16:18:56.424Z,24.20
2018-08-09T16:19:59.835Z,24.30
2018-08-09T16:21:03.151Z,24.30
2018-08-09T16:22:06.514Z,24.20
2018-08-09T16:23:09.851Z,24.10
2018-08-09T16:24:13.221Z,24.10
2018-08-09T16:25:18.156Z,24.10
2018-08-09T16:26:21.519Z,24.00
2018-08-09T16:27:24.882Z,24.10
2018-08-09T16:28:28.195Z,24.20
2018-08-09T16:29:31.519Z,24.30
2018-08-09T16:30:34.911Z,24.40
2018-08-09T16:31:38.247Z,24.30
2018-08-09T16:32:42.010Z,24.30
2018-08-09T16:33:45.431Z,24.30
2018-08-09T16:34:48.784Z,24.20
2018-08-09T16:35:52.118Z,24.20
2018-08-09T16:36:55.444Z,24.30
2018-08-09T16:37:58.779Z,24.30
2018-08-09T16:39:02.178Z,24.10
2018-08-09T16:40:06.326Z,24.00
2018-08-09T16:41:09.638Z,24.00
2018-08-09T16:42:12.963Z,23.90
2018-08-09T16:43:16.304Z,23.80
2018-08-09T16:44:19.713Z,23.80
2018-08-09T16:45:26.855Z,23.80
2018-08-09T16:46:30.252Z,23.90
2018-08-09T16:47:33.619Z,23.90
2018-08-09T16:48:36.987Z,24.00
2018-08-09T16:49:40.504Z,23.90
2018-08-09T16:50:43.974Z,24.00
2018-08-09T16:51:47.336Z,23.90
2018-08-09T16:52:51.062Z,23.90
2018-08-09T16:53:54.379Z,24.00
2018-08-09T16:54:57.774Z,24.00
2018-08-09T16:56:01.118Z,23.90
2018-08-09T16:57:04.483Z,24.00
2018-08-09T16:58:07.804Z,24.00
2018-08-09T16:59:11.163Z,24.00
2018-08-09T17:00:17.430Z,24.20
2018-08-09T17:01:20.778Z,24.10
2018-08-09T17:02:24.110Z,24.00
2018-08-09T17:03:34.174Z,24.00
2018-08-09T17:04:37.539Z,24.00
2018-08-09T17:05:40.923Z,23.90
2018-08-09T17:06:44.245Z,23.90
2018-08-09T17:07:47.886Z,23.90
2018-08-09T17:08:51.494Z,23.80
2018-08-09T17:09:54.855Z,23.80
2018-08-09T17:10:58.244Z,23.80
2018-08-09T17:12:01.576Z,23.90
2018-08-09T17:13:04.916Z,23.90
2018-08-09T17:14:08.261Z,23.80
2018-08-09T17:15:14.698Z,23.90
2018-08-09T17:16:18.032Z,23.80
2018-08-09T17:17:21.406Z,23.80
2018-08-09T17:18:24.736Z,23.80
2018-08-09T17:19:28.174Z,23.70
2018-08-09T17:20:33.519Z,23.80
2018-08-09T17:21:37.217Z,23.70
2018-08-09T17:22:41.212Z,23.70
2018-08-09T17:23:44.586Z,23.80
2018-08-09T17:24:47.986Z,23.80
2018-08-09T17:25:51.328Z,24.00
2018-08-09T17:26:54.703Z,24.00
2018-08-09T17:27:58.104Z,24.10
2018-08-09T17:29:01.458Z,24.20
2018-08-09T17:30:06.111Z,24.30
2018-08-09T17:31:09.496Z,24.10
2018-08-09T17:32:12.827Z,24.00
2018-08-09T17:33:16.170Z,24.00
2018-08-09T17:34:19.527Z,23.90
2018-08-09T17:35:22.926Z,23.70
2018-08-09T17:36:26.296Z,23.80
2018-08-09T17:37:29.642Z,23.80
2018-08-09T17:38:32.998Z,23.70
2018-08-09T17:39:36.363Z,23.80
2018-08-09T17:40:39.744Z,23.80
2018-08-09T17:41:43.058Z,23.80
2018-08-09T17:42:47.170Z,23.90
2018-08-09T17:43:50.518Z,23.90
2018-08-09T17:44:53.835Z,24.00
2018-08-09T17:45:57.235Z,24.00
2018-08-09T17:47:00.611Z,23.90
2018-08-09T17:48:04.506Z,23.90
2018-08-09T17:49:08.034Z,24.00
2018-08-09T17:50:17.955Z,24.00
2018-08-09T17:51:21.326Z,24.00
2018-08-09T17:52:24.702Z,24.10
2018-08-09T17:53:28.111Z,24.20
2018-08-09T17:54:31.439Z,24.20
2018-08-09T17:55:34.808Z,24.10
2018-08-09T17:56:38.186Z,24.10
2018-08-09T17:57:42.586Z,24.10
2018-08-09T17:58:45.941Z,24.10
2018-08-09T17:59:49.317Z,24.10
2018-08-09T18:00:52.669Z,24.00
2018-08-09T18:01:56.147Z,24.00
2018-08-09T18:02:59.503Z,23.80
2018-08-09T18:04:02.847Z,23.70
2018-08-09T18:05:06.729Z,23.50
2018-08-09T18:06:10.092Z,23.50
2018-08-09T18:07:13.494Z,23.50
2018-08-09T18:08:16.848Z,23.50
2018-08-09T18:09:20.194Z,23.50
2018-08-09T18:10:25.935Z,23.50
2018-08-09T18:11:29.315Z,23.60
2018-08-09T18:12:32.663Z,23.50
2018-08-09T18:13:36.002Z,23.50
2018-08-09T18:14:39.315Z,23.50
2018-08-09T18:15:42.643Z,23.50
2018-08-09T18:16:45.995Z,23.50
2018-08-09T18:17:49.729Z,23.40
2018-08-09T18:18:53.231Z,23.30
2018-08-09T18:19:56.594Z,23.20
2018-08-09T18:20:59.931Z,23.20
2018-08-09T18:22:03.250Z,23.20
2018-08-09T18:23:07.175Z,23.20
2018-08-09T18:24:10.561Z,23.20
2018-08-09T18:25:14.693Z,23.20
2018-08-09T18:26:18.028Z,23.20
2018-08-09T18:27:21.363Z,23.10
2018-08-09T18:28:24.762Z,23.00
2018-08-09T18:29:28.103Z,23.10
2018-08-09T18:30:31.543Z,23.10
2018-08-09T18:31:34.901Z,23.00
2018-08-09T18:32:38.598Z,23.10
2018-08-09T18:33:41.968Z,23.10
2018-08-09T18:34:45.332Z,23.10
2018-08-09T18:35:48.692Z,23.10
2018-08-09T18:36:52.035Z,23.10
2018-08-09T18:37:55.423Z,23.10
2018-08-09T18:38:58.795Z,23.10
2018-08-09T18:40:02.160Z,23.20
2018-08-09T18:41:05.507Z,23.20
2018-08-09T18:42:08.863Z,23.20
2018-08-09T18:43:12.305Z,23.20
2018-08-09T18:44:15.650Z,23.20
2018-08-09T18:45:19.339Z,23.20
2018-08-09T18:46:22.655Z,23.20
2018-08-09T18:47:25.977Z,23.20
2018-08-09T18:48:29.295Z,23.20
2018-08-09T18:49:32.708Z,23.10
2018-08-09T18:50:36.059Z,23.10
2018-08-09T18:51:39.383Z,23.10
2018-08-09T18:52:43.039Z,23.10
2018-08-09T18:53:46.372Z,23.10
2018-08-09T18:54:49.742Z,23.10
2018-08-09T18:55:53.095Z,23.00
2018-08-09T18:56:56.438Z,23.00
2018-08-09T18:57:59.841Z,23.00
2018-08-09T18:59:03.224Z,23.00
2018-08-09T19:00:15.186Z,23.10
2018-08-09T19:01:18.531Z,23.10
2018-08-09T19:02:21.954Z,23.10
2018-08-09T19:03:25.340Z,23.10
2018-08-09T19:04:28.695Z,23.10
2018-08-09T19:05:32.076Z,23.10
2018-08-09T19:06:35.434Z,23.10
2018-08-09T19:07:38.811Z,23.00
2018-08-09T19:08:42.211Z,22.90
2018-08-09T19:09:45.546Z,22.90
2018-08-09T19:10:48.900Z,22.90